createdAt,value
2022-09-27T04:47:59.811Z,10.60
2022-09-27T04:50:26.549Z,10.70
2022-09-27T04:52:54.364Z,10.70
2022-09-27T04:55:27.610Z,10.60
2022-09-27T04:57:54.311Z,10.60
2022-09-27T05:00:21.299Z,10.60
2022-09-27T05:02:48.468Z,10.60
2022-09-27T05:05:16.097Z,10.50
2022-09-27T05:07:45.328Z,10.50
2022-09-27T05:10:14.524Z,10.50
2022-09-27T05:12:41.230Z,10.40
2022-09-27T05:15:08.776Z,10.50
2022-09-27T05:17:37.965Z,10.50
2022-09-27T05:20:05.397Z,10.50
2022-09-27T05:22:32.214Z,10.50
2022-09-27T05:24:58.905Z,10.40
2022-09-27T05:27:25.608Z,10.40
2022-09-27T05:29:53.092Z,10.50
2022-09-27T05:32:22.433Z,10.50
2022-09-27T05:34:53.724Z,10.40
2022-09-27T05:37:20.637Z,10.40
2022-09-27T05:39:50.071Z,10.50
2022-09-27T05:42:17.567Z,10.40
2022-09-27T05:44:47.504Z,10.40
2022-09-27T05:47:15.669Z,10.40
2022-09-27T05:49:44.762Z,10.40
2022-09-27T05:52:15.069Z,10.40
2022-09-27T05:54:43.604Z,10.40
2022-09-27T05:57:12.748Z,10.40
2022-09-27T06:09:34.414Z,10.40
2022-09-27T06:12:01.269Z,10.40
2022-09-27T06:14:28.033Z,10.40
2022-09-27T06:16:55.093Z,10.40
2022-09-27T06:19:21.852Z,10.40
2022-09-27T06:21:51.422Z,10.40
2022-09-27T06:24:18.459Z,10.50
2022-09-27T06:26:47.514Z,10.50
2022-09-27T06:29:14.293Z,10.50
2022-09-27T06:31:40.984Z,10.50
2022-09-27T06:34:08.949Z,10.60
2022-09-27T06:36:38.006Z,10.60
2022-09-27T06:39:04.915Z,10.60
2022-09-27T06:41:31.668Z,10.60
2022-09-27T06:43:58.413Z,10.70
2022-09-27T06:46:25.140Z,10.70
2022-09-27T06:48:52.345Z,10.70
2022-09-27T06:51:21.240Z,10.80
2022-09-27T06:53:47.949Z,10.80
2022-09-27T06:56:16.996Z,10.90
2022-09-27T06:59:02.284Z,11.10
2022-09-27T07:01:29.705Z,11.10
2022-09-27T07:03:57.086Z,11.20
2022-09-27T07:06:26.162Z,11.20
2022-09-27T07:08:53.721Z,11.30
2022-09-27T07:11:23.390Z,11.40
2022-09-27T07:13:51.811Z,11.30
2022-09-27T07:16:21.150Z,11.30
2022-09-27T07:18:49.783Z,11.30
2022-09-27T07:21:18.918Z,11.40
2022-09-27T07:23:48.495Z,11.40
2022-09-27T07:26:15.607Z,11.40
2022-09-27T07:28:45.015Z,11.30
2022-09-27T07:31:15.066Z,11.30
2022-09-27T07:33:43.427Z,11.20
2022-09-27T07:36:11.906Z,11.20
2022-09-27T07:38:41.316Z,11.20
2022-09-27T07:41:14.140Z,11.10
2022-09-27T07:43:42.480Z,11.10
2022-09-27T07:46:09.311Z,11.20
2022-09-27T07:48:38.444Z,11.10
2022-09-27T07:51:07.706Z,11.20
2022-09-27T07:53:34.534Z,11.30
2022-09-27T07:56:01.479Z,11.30
2022-09-27T07:58:32.233Z,11.40
2022-09-27T08:01:00.872Z,11.40
2022-09-27T08:03:28.437Z,11.50
2022-09-27T08:05:57.615Z,11.60
2022-09-27T08:08:28.610Z,11.60
2022-09-27T08:10:55.741Z,11.70
2022-09-27T08:13:22.469Z,11.70
2022-09-27T08:15:49.700Z,11.70
2022-09-27T08:18:17.555Z,11.70
2022-09-27T08:20:47.442Z,11.70
2022-09-27T08:23:14.139Z,11.80
2022-09-27T08:25:45.544Z,11.90
2022-09-27T08:28:12.250Z,11.90
2022-09-27T08:30:39.102Z,12.00
2022-09-27T08:33:08.285Z,12.00
2022-09-27T08:35:37.103Z,12.00
2022-09-27T08:38:05.865Z,12.10
2022-09-27T08:40:54.456Z,12.10
2022-09-27T08:43:38.782Z,12.10
2022-09-27T08:46:25.280Z,12.10
2022-09-27T08:49:03.674Z,12.10
2022-09-27T08:51:32.974Z,12.10
2022-09-27T08:54:14.648Z,12.10
2022-09-27T08:59:22.979Z,12.00
2022-09-27T09:01:53.901Z,12.30
2022-09-27T09:04:32.984Z,12.40
2022-09-27T09:07:05.597Z,12.40
2022-09-27T09:09:32.349Z,12.50
2022-09-27T09:12:48.778Z,12.50
2022-09-27T09:15:18.252Z,12.50
2022-09-27T09:18:31.444Z,12.40
2022-09-27T09:21:14.337Z,12.30
2022-09-27T09:24:18.793Z,12.30
2022-09-27T09:27:00.098Z,12.20
2022-09-27T09:29:50.845Z,12.20
2022-09-27T09:32:34.376Z,12.30
2022-09-27T09:35:09.409Z,12.30
2022-09-27T09:37:41.014Z,12.30
2022-09-27T09:40:28.079Z,12.30
2022-09-27T09:43:13.605Z,12.60
2022-09-27T09:45:47.222Z,12.70
2022-09-27T09:48:23.202Z,12.70
2022-09-27T09:50:53.256Z,12.90
2022-09-27T09:53:43.810Z,13.00
2022-09-27T09:56:20.603Z,13.20
2022-09-27T09:58:53.711Z,13.30
2022-09-27T10:01:35.184Z,13.30
2022-09-27T10:04:04.846Z,13.40
2022-09-27T10:06:32.328Z,13.20
2022-09-27T10:09:00.150Z,13.20
2022-09-27T10:11:37.875Z,13.20
2022-09-27T10:14:10.237Z,13.30
2022-09-27T10:16:37.645Z,13.40
2022-09-27T10:19:06.416Z,13.40
2022-09-27T10:21:34.067Z,13.30
2022-09-27T10:24:16.471Z,13.30
2022-09-27T10:26:48.494Z,13.20
2022-09-27T10:29:34.856Z,13.20
2022-09-27T10:32:05.764Z,13.20
2022-09-27T10:34:38.563Z,13.30
2022-09-27T10:37:24.010Z,13.40
2022-09-27T10:39:53.665Z,13.50
2022-09-27T10:42:20.758Z,13.40
2022-09-27T10:44:47.522Z,13.40
2022-09-27T10:47:22.894Z,13.30
2022-09-27T10:49:52.764Z,13.30
2022-09-27T10:52:20.940Z,13.30
2022-09-27T10:55:01.810Z,13.20
2022-09-27T10:57:30.230Z,13.10
2022-09-27T11:00:18.617Z,13.20
2022-09-27T11:03:19.288Z,13.20
2022-09-27T11:05:46.086Z,13.20
2022-09-27T11:08:18.870Z,13.20
2022-09-27T11:11:01.501Z,13.10
2022-09-27T11:13:32.840Z,13.10
2022-09-27T11:16:08.742Z,13.20
2022-09-27T11:18:50.431Z,13.20
2022-09-27T11:21:45.822Z,13.20
2022-09-27T11:24:32.583Z,13.10
2022-09-27T11:27:18.172Z,13.10
2022-09-27T11:29:47.667Z,13.10
2022-09-27T11:32:38.480Z,13.00
2022-09-27T11:35:42.035Z,12.90
2022-09-27T11:38:34.602Z,12.90
2022-09-27T11:41:12.596Z,13.00
2022-09-27T11:43:55.859Z,12.90
2022-09-27T11:46:38.719Z,12.90
2022-09-27T11:49:25.903Z,12.80
2022-09-27T11:51:55.777Z,12.80
2022-09-27T11:54:50.772Z,12.80
2022-09-27T11:57:35.721Z,12.90
2022-09-27T12:00:25.663Z,12.90
2022-09-27T12:02:55.395Z,13.00
2022-09-27T12:05:55.214Z,13.00
2022-09-27T12:08:30.010Z,13.10
2022-09-27T12:11:11.188Z,13.20
2022-09-27T12:13:47.553Z,13.30
2022-09-27T12:16:20.818Z,13.20
2022-09-27T12:18:51.660Z,13.30
2022-09-27T12:21:19.756Z,13.20
2022-09-27T12:23:52.552Z,13.20
2022-09-27T12:26:26.374Z,13.20
2022-09-27T12:29:01.209Z,13.30
2022-09-27T12:31:52.954Z,13.30
2022-09-27T12:34:31.450Z,13.30
2022-09-27T12:37:25.279Z,13.30
2022-09-27T12:40:06.311Z,13.30
2022-09-27T12:42:35.671Z,13.30
2022-09-27T12:45:02.853Z,13.30
2022-09-27T12:47:42.434Z,13.30
2022-09-27T12:50:37.831Z,13.30
2022-09-27T12:53:35.182Z,13.30
2022-09-27T12:56:09.400Z,13.20
2022-09-27T12:58:45.232Z,13.30
2022-09-27T13:01:28.506Z,13.30
2022-09-27T13:04:04.096Z,13.40
2022-09-27T13:06:31.705Z,13.40
2022-09-27T13:09:25.417Z,13.50
2022-09-27T13:12:13.199Z,13.40
2022-09-27T13:15:02.002Z,13.50
2022-09-27T13:18:02.238Z,13.50
2022-09-27T13:20:31.895Z,13.50
2022-09-27T13:23:00.379Z,13.60
2022-09-27T13:26:03.925Z,13.70
2022-09-27T13:28:31.774Z,13.70
2022-09-27T13:31:10.786Z,13.70
2022-09-27T13:33:45.686Z,13.70
2022-09-27T13:36:24.837Z,13.70
2022-09-27T13:39:12.622Z,13.60
2022-09-27T13:41:58.974Z,13.50
2022-09-27T13:45:12.524Z,13.40
2022-09-27T13:47:44.189Z,13.30
2022-09-27T13:50:26.625Z,13.30
2022-09-27T13:53:18.107Z,13.20
2022-09-27T13:55:50.319Z,13.10
2022-09-27T13:58:19.735Z,13.00
2022-09-27T14:00:51.621Z,12.80
2022-09-27T14:03:53.170Z,12.70
2022-09-27T14:06:39.557Z,12.50
2022-09-27T14:09:14.742Z,12.60
2022-09-27T14:11:44.141Z,12.50
2022-09-27T14:14:22.251Z,12.50
2022-09-27T14:16:58.550Z,12.50
2022-09-27T14:19:26.124Z,12.50
2022-09-27T14:21:58.224Z,12.50
2022-09-27T14:24:36.880Z,12.50
2022-09-27T14:27:17.803Z,12.50
2022-09-27T14:29:53.406Z,12.60
2022-09-27T14:32:26.103Z,12.60
2022-09-27T14:35:32.813Z,13.30
2022-09-27T14:38:26.365Z,14.10
2022-09-27T14:41:01.224Z,14.50
2022-09-27T14:43:29.271Z,14.60
2022-09-27T14:46:06.978Z,14.50
2022-09-27T14:48:35.774Z,14.20
2022-09-27T14:51:22.696Z,14.00
2022-09-27T14:53:57.009Z,13.80
2022-09-27T14:56:27.989Z,13.50
2022-09-27T14:59:02.420Z,13.40
2022-09-27T15:01:30.497Z,13.20
2022-09-27T15:04:15.193Z,13.10
2022-09-27T15:06:43.458Z,13.10
2022-09-27T15:09:14.241Z,13.10
2022-09-27T15:11:42.692Z,13.00
2022-09-27T15:14:17.334Z,13.00
2022-09-27T15:16:47.449Z,12.90
2022-09-27T15:19:27.023Z,13.20
2022-09-27T15:21:54.256Z,13.00
2022-09-27T15:24:39.562Z,12.80
2022-09-27T15:27:15.173Z,12.80
2022-09-27T15:29:42.082Z,12.80
2022-09-27T15:32:16.483Z,12.80
2022-09-27T15:34:43.358Z,12.70
2022-09-27T15:37:39.479Z,12.70
2022-09-27T15:40:18.594Z,12.60
2022-09-27T15:42:58.281Z,12.60
2022-09-27T15:45:38.910Z,12.60
2022-09-27T15:48:18.500Z,12.30
2022-09-27T15:50:46.886Z,12.00
2022-09-27T15:53:36.591Z,11.70
2022-09-27T15:56:06.722Z,11.50
2022-09-27T15:58:35.143Z,11.30
2022-09-27T16:01:05.584Z,11.20
2022-09-27T16:03:33.016Z,11.30
2022-09-27T16:06:03.602Z,11.20
2022-09-27T16:08:30.627Z,11.10
2022-09-27T16:10:59.472Z,11.10
2022-09-27T16:13:32.559Z,11.10
2022-09-27T16:16:01.618Z,11.10
2022-09-27T16:18:31.735Z,11.10
2022-09-27T16:20:59.647Z,11.10
2022-09-27T16:23:28.732Z,11.00
2022-09-27T16:25:57.523Z,11.00
2022-09-27T16:28:24.237Z,11.00
2022-09-27T16:30:53.377Z,11.00
2022-09-27T16:33:22.574Z,11.00
2022-09-27T16:35:50.172Z,10.90
2022-09-27T16:38:19.167Z,11.00
2022-09-27T16:40:45.846Z,10.90
2022-09-27T16:43:13.062Z,10.90
2022-09-27T16:45:39.729Z,10.90
2022-09-27T16:48:06.363Z,10.90
2022-09-27T16:50:51.669Z,10.90
2022-09-27T16:53:20.760Z,10.80
2022-09-27T16:55:49.964Z,10.80
2022-09-27T16:58:19.064Z,10.70
2022-09-27T17:00:45.758Z,10.70
2022-09-27T17:03:14.951Z,10.70
2022-09-27T17:05:41.689Z,10.70
2022-09-27T17:08:10.961Z,10.80
2022-09-27T17:10:38.652Z,10.80
2022-09-27T17:13:07.983Z,10.80
2022-09-27T17:15:36.611Z,10.70
2022-09-27T17:18:03.568Z,10.70
2022-09-27T17:20:30.910Z,10.70
2022-09-27T17:22:57.783Z,10.70
2022-09-27T17:25:27.752Z,10.70
2022-09-27T17:27:54.342Z,10.70
2022-09-27T17:30:21.099Z,10.70
2022-09-27T17:32:47.810Z,10.60
2022-09-27T17:35:14.505Z,10.60
2022-09-27T17:37:41.340Z,10.70
2022-09-27T17:40:08.244Z,10.70
2022-09-27T17:42:37.248Z,10.70
2022-09-27T17:45:04.532Z,10.70
2022-09-27T17:47:49.915Z,10.70
2022-09-27T17:50:27.024Z,10.70
2022-09-27T17:52:54.197Z,10.70
2022-09-27T17:55:21.725Z,10.80
2022-09-27T17:57:52.075Z,10.80
2022-09-27T18:00:19.221Z,10.80
2022-09-27T18:02:46.118Z,10.70
2022-09-27T18:05:13.181Z,10.70
2022-09-27T18:07:42.369Z,10.70
2022-09-27T18:10:13.659Z,10.70
2022-09-27T18:12:41.116Z,10.70
2022-09-27T18:15:08.382Z,10.70
2022-09-27T18:17:37.337Z,10.80
2022-09-27T18:20:06.671Z,10.80
2022-09-27T18:22:33.336Z,10.80
2022-09-27T18:25:03.480Z,10.80
2022-09-27T18:27:30.154Z,10.80
2022-09-27T18:29:57.052Z,10.80
2022-09-27T18:32:23.714Z,10.80
2022-09-27T18:34:50.394Z,10.80
2022-09-27T18:37:17.146Z,10.80
2022-09-27T18:39:46.160Z,10.90
2022-09-27T18:42:12.832Z,10.90
2022-09-27T18:44:39.502Z,10.90
2022-09-27T18:47:06.296Z,10.90
2022-09-27T18:49:35.259Z,10.90
2022-09-27T18:52:04.304Z,10.90
2022-09-27T18:54:33.464Z,10.90
2022-09-27T18:57:02.397Z,10.80
2022-09-27T18:59:29.722Z,10.90
2022-09-27T19:01:56.495Z,10.80
2022-09-27T19:04:24.959Z,10.80
2022-09-27T19:06:53.205Z,10.70
2022-09-27T19:09:20.180Z,10.70
2022-09-27T19:11:47.054Z,10.70
2022-09-27T19:14:19.453Z,10.70
2022-09-27T19:16:47.332Z,10.70
2022-09-27T19:19:19.031Z,10.70
2022-09-27T19:21:46.190Z,10.70
2022-09-27T19:24:15.597Z,10.70
2022-09-27T19:26:42.555Z,10.70
2022-09-27T19:29:09.367Z,10.70
2022-09-27T19:31:38.549Z,10.80
2022-09-27T19:34:05.264Z,10.80
2022-09-27T19:36:31.911Z,10.70
2022-09-27T19:39:02.163Z,10.70
2022-09-27T19:41:28.962Z,10.70
2022-09-27T19:43:56.669Z,10.70
2022-09-27T19:46:25.230Z,10.70
2022-09-27T19:48:55.093Z,10.70
2022-09-27T19:51:27.512Z,10.60
2022-09-27T19:53:57.113Z,10.60
2022-09-27T19:56:24.631Z,10.60
2022-09-27T19:58:54.389Z,10.60
2022-09-27T20:01:23.689Z,10.50
2022-09-27T20:03:51.972Z,10.40
2022-09-27T20:06:20.468Z,10.50
2022-09-27T20:08:50.394Z,10.60
2022-09-27T20:11:21.027Z,10.60
2022-09-27T20:13:49.172Z,10.50
2022-09-27T20:16:22.190Z,10.40
2022-09-27T20:18:55.163Z,10.40
2022-09-27T20:21:26.310Z,10.50
2022-09-27T20:23:57.380Z,10.40
2022-09-27T20:26:25.756Z,10.40
2022-09-27T20:28:54.724Z,10.40
2022-09-27T20:31:23.663Z,10.50
2022-09-27T20:33:52.877Z,10.50
2022-09-27T20:36:24.112Z,10.40
2022-09-27T20:39:01.194Z,10.50
2022-09-27T20:41:31.093Z,10.40
2022-09-27T20:44:01.264Z,10.40
2022-09-27T20:46:28.081Z,10.40
2022-09-27T20:48:57.116Z,10.50
2022-09-27T20:51:24.869Z,10.50
2022-09-27T20:53:51.880Z,10.50
2022-09-27T20:56:35.279Z,10.50
2022-09-27T20:59:04.926Z,10.50
2022-09-27T21:01:32.687Z,10.50
2022-09-27T21:04:02.220Z,10.50
2022-09-27T21:06:31.240Z,10.50
2022-09-27T21:08:59.032Z,10.60
2022-09-27T21:11:26.496Z,10.60
2022-09-27T21:13:55.861Z,10.50
2022-09-27T21:16:25.392Z,10.60
2022-09-27T21:18:53.433Z,10.60
2022-09-27T21:21:23.842Z,10.60
2022-09-27T21:24:01.527Z,10.60
2022-09-27T21:26:31.086Z,10.60
2022-09-27T21:28:59.891Z,10.70
2022-09-27T21:31:34.315Z,10.60
2022-09-27T21:34:03.503Z,10.60
2022-09-27T21:36:35.873Z,10.60
2022-09-27T21:39:03.386Z,10.60
2022-09-27T21:41:30.078Z,10.70
2022-09-27T21:43:57.583Z,10.70
2022-09-27T21:46:27.047Z,10.70
2022-09-27T21:48:58.973Z,10.70
2022-09-27T21:51:36.425Z,10.70
2022-09-27T21:54:05.540Z,10.70
2022-09-27T21:56:37.660Z,10.70
2022-09-27T21:59:09.346Z,10.70
2022-09-27T22:01:36.283Z,10.60
2022-09-27T22:04:05.310Z,10.60
2022-09-27T22:06:36.165Z,10.60
2022-09-27T22:09:22.237Z,10.60
2022-09-27T22:11:49.000Z,10.60
2022-09-27T22:14:18.775Z,10.60
2022-09-27T22:16:46.487Z,10.60
2022-09-27T22:19:14.959Z,10.50
2022-09-27T22:21:42.279Z,10.50
2022-09-27T22:24:14.388Z,10.60
2022-09-27T22:26:42.484Z,10.50
2022-09-27T22:29:09.350Z,10.50
2022-09-27T22:31:36.912Z,10.50
2022-09-27T22:34:05.929Z,10.60
2022-09-27T22:36:35.017Z,10.50
2022-09-27T22:39:04.284Z,10.50
2022-09-27T22:41:31.766Z,10.50
2022-09-27T22:44:01.154Z,10.50
2022-09-27T22:46:27.924Z,10.70
2022-09-27T22:48:57.469Z,10.70
2022-09-27T22:51:24.205Z,10.70
2022-09-27T22:53:50.840Z,10.80
2022-09-27T22:56:19.588Z,10.80
2022-09-27T22:58:49.164Z,10.70
2022-09-27T23:01:18.492Z,10.70
2022-09-27T23:03:48.346Z,10.70
2022-09-27T23:06:15.888Z,10.70
2022-09-27T23:08:43.092Z,10.80
2022-09-27T23:11:15.075Z,10.80
2022-09-27T23:13:43.695Z,10.70
2022-09-27T23:16:13.571Z,10.70
2022-09-27T23:18:40.678Z,10.70
2022-09-27T23:21:09.944Z,10.70
2022-09-27T23:23:42.094Z,10.80
2022-09-27T23:26:11.074Z,10.80
2022-09-27T23:28:38.581Z,10.80
2022-09-27T23:31:10.232Z,10.70
2022-09-27T23:33:38.628Z,10.70
2022-09-27T23:36:08.139Z,10.80
2022-09-27T23:38:34.893Z,10.70
2022-09-27T23:41:01.855Z,10.70
2022-09-27T23:43:31.336Z,10.80
2022-09-27T23:45:58.085Z,10.80
2022-09-27T23:48:26.046Z,10.70
2022-09-27T23:50:53.052Z,10.80
2022-09-27T23:53:20.923Z,10.80
2022-09-27T23:55:48.586Z,10.70
2022-09-27T23:58:18.646Z,10.70
